Time;durP1;ratioP1;P1;durP2;ratioP2;P2;SDS_P1;SDS_P2;PMS_P1;PMS_P2;Temp;Humidity;BMP_temperature;BMP_pressure;BME280_temperature;BME280_humidity;BME280_pressure;Samples;Min_cycle;Max_cycle;Signal;HPM_P1;HPM_P2
2022/04/05 00:01:43;;;;;;;;;19.75;15.75;;;;;10.57;58.13;101179.38;5034325;28;45897;-71
2022/04/05 00:04:10;;;;;;;;;16.25;14.25;;;;;10.54;57.84;101179.47;5021444;28;45363;-70
2022/04/05 00:06:35;;;;;;;;;12.25;12.25;;;;;10.55;58.14;101183.84;5033448;28;45507;-71
2022/04/05 00:09:01;;;;;;;;;14.00;13.00;;;;;10.54;58.67;101186.50;5032158;28;45572;-70
2022/04/05 00:11:26;;;;;;;;;16.00;15.00;;;;;10.54;58.98;101194.38;5032222;28;45500;-70
2022/04/05 00:13:51;;;;;;;;;14.50;12.50;;;;;10.55;58.60;101186.47;5032430;28;45406;-71
2022/04/05 00:16:17;;;;;;;;;11.75;11.75;;;;;10.54;58.81;101184.72;5035472;28;46019;-70
2022/04/05 00:18:42;;;;;;;;;13.00;12.00;;;;;10.56;59.19;101177.66;5033953;28;46437;-70
2022/04/05 00:21:07;;;;;;;;;10.00;9.25;;;;;10.62;59.44;101181.84;5035253;28;45279;-70
2022/04/05 00:23:33;;;;;;;;;14.75;12.25;;;;;10.65;59.58;101184.38;5032179;28;45378;-71
2022/04/05 00:25:58;;;;;;;;;20.50;15.50;;;;;10.62;59.70;101180.06;5032234;28;45418;-70
2022/04/05 00:28:24;;;;;;;;;11.25;10.25;;;;;10.63;59.90;101178.28;5034086;28;46244;-70
2022/04/05 00:30:49;;;;;;;;;12.75;9.25;;;;;10.76;59.66;101199.75;5034733;28;45441;-70
2022/04/05 00:33:15;;;;;;;;;16.50;10.25;;;;;10.65;59.86;101182.59;5023538;28;45598;-71
2022/04/05 00:35:41;;;;;;;;;13.50;11.25;;;;;10.65;60.02;101179.97;5028677;28;45432;-71
2022/04/05 00:38:08;;;;;;;;;14.00;12.75;;;;;10.68;60.34;101177.22;5031778;28;46243;-71
2022/04/05 00:40:35;;;;;;;;;13.50;10.50;;;;;10.69;60.27;101183.31;5033334;28;45875;-70
2022/04/05 00:43:03;;;;;;;;;14.00;11.50;;;;;10.76;60.92;101186.59;5035884;28;45326;-71
2022/04/05 00:45:29;;;;;;;;;13.50;10.50;;;;;10.71;60.99;101182.38;5032491;28;45619;-70
2022/04/05 00:47:55;;;;;;;;;12.75;9.00;;;;;10.75;61.10;101183.09;5031902;28;46521;-71
2022/04/05 00:50:22;;;;;;;;;12.25;12.00;;;;;10.76;61.03;101181.34;5031643;28;46105;-70
2022/04/05 00:52:48;;;;;;;;;12.00;9.50;;;;;10.74;61.52;101175.28;5031065;28;45517;-71
2022/04/05 00:55:18;;;;;;;;;9.50;8.00;;;;;10.73;61.18;101170.94;5035570;28;45468;-71
2022/04/05 00:57:45;;;;;;;;;12.75;10.75;;;;;10.67;61.26;101170.25;5033153;28;45587;-71
2022/04/05 01:00:10;;;;;;;;;9.00;8.75;;;;;10.69;61.87;101185.94;5035393;28;45998;-71
2022/04/05 01:02:38;;;;;;;;;10.00;10.00;;;;;10.67;61.99;101175.50;5028839;28;45310;-70
2022/04/05 01:05:05;;;;;;;;;13.00;12.25;;;;;10.65;62.00;101169.44;5018287;28;45473;-70
2022/04/05 01:07:32;;;;;;;;;12.50;10.75;;;;;10.74;62.14;101175.28;5032746;28;45610;-70
2022/04/05 01:09:59;;;;;;;;;13.00;11.75;;;;;10.84;62.31;101187.16;5032956;28;45549;-71
2022/04/05 01:12:25;;;;;;;;;19.50;13.50;;;;;10.70;62.25;101161.38;5032201;28;45444;-70
2022/04/05 01:14:51;;;;;;;;;9.50;9.50;;;;;10.80;62.14;101178.53;5031664;28;45448;-70
2022/04/05 01:17:17;;;;;;;;;10.75;9.00;;;;;10.78;62.65;101169.00;5031239;28;45507;-71
2022/04/05 01:19:43;;;;;;;;;17.50;12.50;;;;;10.76;62.33;101163.81;5031257;28;45979;-70
2022/04/05 01:22:09;;;;;;;;;10.50;9.75;;;;;10.83;62.40;101181.06;5035611;28;45484;-70
2022/04/05 01:24:35;;;;;;;;;15.75;11.00;;;;;10.75;62.40;101162.06;5031915;28;45397;-70
2022/04/05 01:27:04;;;;;;;;;12.75;10.00;;;;;10.76;62.81;101160.31;5017143;28;46850;-71
2022/04/05 01:29:29;;;;;;;;;14.75;10.25;;;;;10.75;62.97;101161.22;5031178;28;45595;-71
2022/04/05 01:31:59;;;;;;;;;13.00;9.00;;;;;10.73;63.32;101157.78;5030611;28;45424;-71
2022/04/05 01:34:26;;;;;;;;;14.75;13.25;;;;;10.75;63.40;101158.56;5023718;28;45944;-71
2022/04/05 01:36:55;;;;;;;;;14.75;12.75;;;;;10.76;63.63;101163.81;5033812;28;45492;-70
2022/04/05 01:39:23;;;;;;;;;14.25;8.50;;;;;10.75;63.30;101154.16;5034583;28;45424;-71
2022/04/05 01:42:00;;;;;;;;;19.00;13.00;;;;;10.73;63.93;101155.16;5012726;28;45473;-70
2022/04/05 01:44:27;;;;;;;;;11.00;10.50;;;;;10.75;63.72;101145.44;5030914;28;45537;-70
2022/04/05 01:46:52;;;;;;;;;15.50;11.25;;;;;10.72;63.74;101151.69;5029980;28;45527;-71
2022/04/05 01:49:18;;;;;;;;;9.50;5.75;;;;;10.67;63.99;101141.31;5035277;28;45812;-70
2022/04/05 01:51:44;;;;;;;;;18.50;14.50;;;;;10.60;64.42;101124.09;5035461;28;45576;-71
2022/04/05 01:54:12;;;;;;;;;11.00;10.25;;;;;10.70;64.52;101137.72;5034844;28;45472;-70
2022/04/05 01:56:46;;;;;;;;;13.00;9.75;;;;;10.62;64.67;101124.00;5030614;28;45444;-70
2022/04/05 01:59:14;;;;;;;;;14.25;10.25;;;;;10.70;64.91;101135.09;5023671;28;45837;-70
2022/04/05 02:01:40;;;;;;;;;10.50;10.00;;;;;10.65;64.82;101135.28;5031836;28;45457;-71
2022/04/05 02:04:05;;;;;;;;;7.75;7.00;;;;;10.67;64.57;101132.59;5019360;28;45345;-70
2022/04/05 02:06:30;;;;;;;;;13.50;12.75;;;;;10.65;64.88;101139.69;5031435;28;45299;-71
2022/04/05 02:08:56;;;;;;;;;13.00;10.00;;;;;10.64;64.51;101138.81;5030180;28;45569;-71
2022/04/05 02:11:23;;;;;;;;;13.00;10.00;;;;;10.60;65.45;101139.00;5030648;28;45448;-71
2022/04/05 02:13:48;;;;;;;;;11.25;9.75;;;;;10.59;65.31;101140.75;5030032;28;45522;-71
2022/04/05 02:16:14;;;;;;;;;15.25;13.00;;;;;10.61;65.69;101138.94;5033999;28;46578;-70
2022/04/05 02:18:41;;;;;;;;;14.75;12.75;;;;;10.53;66.43;101135.72;5031924;28;45611;-71
2022/04/05 02:21:06;;;;;;;;;12.00;9.75;;;;;10.48;66.24;101126.28;5029840;28;45291;-71
2022/04/05 02:23:32;;;;;;;;;14.25;11.75;;;;;10.53;66.36;101140.97;5030308;28;45471;-70
2022/04/05 02:25:57;;;;;;;;;14.50;12.75;;;;;10.42;66.25;101124.72;5030041;28;46375;-70
2022/04/05 02:28:23;;;;;;;;;16.75;13.00;;;;;10.42;66.69;101127.38;5032899;28;45442;-71
2022/04/05 02:30:49;;;;;;;;;12.50;10.25;;;;;10.36;66.98;101123.19;5031203;28;45568;-71
2022/04/05 02:33:14;;;;;;;;;14.25;12.25;;;;;10.37;67.32;101130.16;5032284;28;45606;-71
2022/04/05 02:35:40;;;;;;;;;16.25;10.00;;;;;10.36;67.53;101125.81;5029365;28;46321;-71
2022/04/05 02:38:05;;;;;;;;;18.25;12.25;;;;;10.39;67.62;101133.59;5029814;28;45419;-71
2022/04/05 02:40:31;;;;;;;;;9.75;9.00;;;;;10.47;67.58;101151.69;5031616;28;46098;-70
2022/04/05 02:42:56;;;;;;;;;16.50;14.50;;;;;10.39;67.76;101125.72;5033303;28;45448;-71
2022/04/05 02:45:22;;;;;;;;;11.00;11.00;;;;;10.42;67.75;101122.09;5030499;28;46218;-71
2022/04/05 02:47:47;;;;;;;;;10.75;10.75;;;;;10.39;68.18;101116.97;5030304;28;45465;-71
2022/04/05 02:50:17;;;;;;;;;13.50;11.00;;;;;10.36;69.59;101117.06;5029410;28;45701;-71
2022/04/05 02:52:46;;;;;;;;;13.50;9.25;;;;;10.37;68.94;101126.66;5030053;28;45485;-71
2022/04/05 02:55:12;;;;;;;;;12.25;9.25;;;;;10.35;68.67;101124.09;5034181;28;45503;-71
2022/04/05 02:57:39;;;;;;;;;12.75;11.25;;;;;10.30;68.60;101119.94;5031001;28;45521;-71
2022/04/05 03:00:07;;;;;;;;;12.00;10.00;;;;;10.30;68.79;101123.41;5031092;28;45581;-71
2022/04/05 03:02:34;;;;;;;;;10.00;9.00;;;;;10.31;69.14;101125.13;5029650;28;45527;-70
2022/04/05 03:05:01;;;;;;;;;14.50;9.50;;;;;10.29;69.19;101112.97;5034486;28;47418;-71
2022/04/05 03:07:26;;;;;;;;;12.00;10.50;;;;;10.23;69.34;101110.50;5031843;28;45532;-71
2022/04/05 03:09:52;;;;;;;;;13.00;11.50;;;;;10.33;70.45;101125.06;5031759;28;45492;-71
2022/04/05 03:12:18;;;;;;;;;17.75;13.25;;;;;10.28;70.14;101113.84;5030057;28;45447;-71
2022/04/05 03:14:45;;;;;;;;;14.25;12.00;;;;;10.22;70.32;101101.75;5029927;28;45490;-71
2022/04/05 03:17:11;;;;;;;;;14.50;13.50;;;;;10.20;70.25;101112.34;5029572;28;45606;-71
2022/04/05 03:19:36;;;;;;;;;11.00;10.50;;;;;10.11;70.51;101098.66;5030197;28;45587;-71
2022/04/05 03:22:02;;;;;;;;;18.50;13.00;;;;;10.10;70.67;101099.59;5033623;28;45515;-71
2022/04/05 03:24:28;;;;;;;;;14.25;12.00;;;;;10.18;70.96;101116.81;5029553;28;45534;-70
2022/04/05 03:26:53;;;;;;;;;13.50;12.75;;;;;10.06;70.77;101095.34;5029055;28;45512;-71
2022/04/05 03:29:19;;;;;;;;;12.75;10.25;;;;;10.06;73.42;101101.44;5029806;28;45402;-70
2022/04/05 03:31:44;;;;;;;;;10.25;10.25;;;;;10.01;73.22;101106.00;5029315;28;45364;-71
2022/04/05 03:34:09;;;;;;;;;13.00;12.25;;;;;10.02;72.76;101101.59;5035843;28;45535;-70
2022/04/05 03:36:35;;;;;;;;;12.50;10.75;;;;;9.99;73.29;101099.97;5033863;28;45385;-70
2022/04/05 03:39:00;;;;;;;;;17.75;12.00;;;;;10.02;73.92;101099.84;5032754;28;45507;-71
2022/04/05 03:41:25;;;;;;;;;15.50;14.50;;;;;9.99;73.65;101092.09;5027379;28;45339;-70
2022/04/05 03:43:51;;;;;;;;;13.50;13.50;;;;;9.95;74.87;101082.59;5027612;28;46225;-71
2022/04/05 03:46:17;;;;;;;;;17.50;12.00;;;;;10.03;74.00;101100.72;5027406;28;45481;-71
2022/04/05 03:48:42;;;;;;;;;13.75;12.75;;;;;9.98;74.19;101100.88;5034494;28;45398;-71
2022/04/05 03:51:09;;;;;;;;;14.25;11.25;;;;;10.10;74.55;101108.31;5033775;28;45383;-71
2022/04/05 03:53:36;;;;;;;;;14.75;11.25;;;;;10.11;74.37;101104.78;5029845;28;46116;-71
2022/04/05 03:56:02;;;;;;;;;13.25;12.50;;;;;10.10;74.62;101104.84;5032870;28;45637;-71
2022/04/05 03:58:27;;;;;;;;;13.75;12.00;;;;;10.04;77.20;101103.28;5035208;28;45480;-71
2022/04/05 04:00:53;;;;;;;;;16.75;14.25;;;;;9.98;76.37;101095.63;5035535;28;45420;-71
2022/04/05 04:03:19;;;;;;;;;17.50;13.00;;;;;9.93;76.77;101094.94;5032536;28;47075;-71
2022/04/05 04:05:44;;;;;;;;;13.75;11.00;;;;;9.94;75.98;101102.75;5031988;28;45354;-71
2022/04/05 04:08:09;;;;;;;;;20.00;13.25;;;;;9.96;76.31;101097.44;5032265;28;46479;-71
2022/04/05 04:10:35;;;;;;;;;13.50;10.25;;;;;9.97;77.00;101088.66;5034260;28;48527;-71
2022/04/05 04:13:01;;;;;;;;;13.25;10.50;;;;;9.97;76.29;101093.91;5036890;28;46003;-71
2022/04/05 04:15:26;;;;;;;;;15.00;13.25;;;;;9.99;75.92;101094.72;5032467;28;45421;-71
2022/04/05 04:17:51;;;;;;;;;17.00;13.50;;;;;10.03;77.01;101098.09;5036126;28;45479;-71
2022/04/05 04:20:17;;;;;;;;;19.00;14.25;;;;;10.03;76.40;101098.09;5028035;28;45435;-71
2022/04/05 04:22:42;;;;;;;;;15.25;12.00;;;;;9.97;76.37;101098.28;5035387;28;45378;-71
2022/04/05 04:25:08;;;;;;;;;12.25;12.25;;;;;9.96;77.63;101101.81;5037015;28;45466;-71
2022/04/05 04:27:34;;;;;;;;;15.25;13.00;;;;;9.90;77.72;101097.66;5032878;28;45442;-71
2022/04/05 04:30:00;;;;;;;;;18.25;16.50;;;;;9.85;78.09;101089.91;5036162;28;45597;-71
2022/04/05 04:32:25;;;;;;;;;13.00;11.50;;;;;9.82;78.52;101095.28;5035498;28;45777;-71
2022/04/05 04:34:50;;;;;;;;;18.75;17.50;;;;;9.83;79.33;101090.91;5032065;28;47139;-71
2022/04/05 04:37:16;;;;;;;;;12.33;11.67;;;;;9.84;78.62;101087.34;5034844;28;45421;-71
2022/04/05 04:39:42;;;;;;;;;12.25;12.25;;;;;9.85;79.16;101091.69;5033452;28;45417;-71
2022/04/05 04:42:07;;;;;;;;;19.25;16.25;;;;;9.83;79.02;101093.53;5031629;28;45425;-71
2022/04/05 04:44:32;;;;;;;;;17.50;12.50;;;;;9.84;78.90;101095.22;5035869;28;45527;-71
2022/04/05 04:46:58;;;;;;;;;18.25;15.00;;;;;9.84;78.99;101095.22;5031998;28;45451;-71
2022/04/05 04:49:24;;;;;;;;;16.25;13.25;;;;;9.84;80.22;101089.97;5034020;28;45487;-71
2022/04/05 04:51:49;;;;;;;;;14.50;12.50;;;;;9.84;79.35;101087.34;5032679;28;46978;-71
2022/04/05 04:54:15;;;;;;;;;15.25;11.75;;;;;9.80;79.27;101088.38;5031982;28;45554;-71
2022/04/05 04:56:40;;;;;;;;;15.25;12.00;;;;;9.78;80.05;101085.81;5032243;28;45486;-71
2022/04/05 04:59:05;;;;;;;;;16.25;11.50;;;;;9.76;79.46;101087.63;5031308;28;45350;-71
2022/04/05 05:01:31;;;;;;;;;19.50;15.00;;;;;9.77;80.25;101083.25;5033560;28;46176;-71
2022/04/05 05:03:56;;;;;;;;;21.75;14.50;;;;;9.75;81.07;101078.03;5036258;28;45474;-71
2022/04/05 05:06:21;;;;;;;;;12.75;12.25;;;;;9.72;81.05;101077.28;5031604;28;45421;-71
2022/04/05 05:08:47;;;;;;;;;14.00;12.67;;;;;9.68;80.90;101087.88;5034026;28;45532;-71
2022/04/05 05:11:12;;;;;;;;;17.67;12.00;;;;;9.66;81.59;101084.47;5030665;28;56237;-71
2022/04/05 05:13:37;;;;;;;;;15.67;13.67;;;;;9.65;82.25;101090.59;5020106;28;51447;-71
2022/04/05 05:16:03;;;;;;;;;21.50;13.50;;;;;9.62;82.49;101090.72;5034766;28;45538;-71
2022/04/05 05:18:29;;;;;;;;;15.50;11.00;;;;;9.60;82.91;101091.66;5014732;28;45656;-71
2022/04/05 05:20:54;;;;;;;;;12.50;12.50;;;;;9.58;83.07;101080.38;5030610;28;45475;-71
2022/04/05 05:23:20;;;;;;;;;18.00;13.00;;;;;9.59;83.04;101085.56;5034780;28;45573;-71
2022/04/05 05:25:46;;;;;;;;;15.00;14.75;;;;;9.57;85.89;101086.53;5031600;28;45428;-71
2022/04/05 05:28:11;;;;;;;;;19.25;12.00;;;;;9.63;83.78;101086.31;5035028;28;46454;-71
2022/04/05 05:30:37;;;;;;;;;15.25;15.25;;;;;9.60;83.95;101092.50;5020588;28;46137;-71
2022/04/05 05:33:02;;;;;;;;;16.50;15.50;;;;;9.60;84.74;101087.25;5030591;28;45465;-71
2022/04/05 05:35:28;;;;;;;;;15.75;12.25;;;;;9.61;84.33;101090.78;5031192;28;45478;-71
2022/04/05 05:37:56;;;;;;;;;13.75;10.50;;;;;9.63;84.28;101081.91;5030576;28;45493;-71
2022/04/05 05:40:21;;;;;;;;;17.75;16.00;;;;;9.64;83.89;101086.25;5033567;28;46087;-71
2022/04/05 05:42:50;;;;;;;;;18.50;15.50;;;;;9.66;84.74;101081.84;5035022;28;45310;-71
2022/04/05 05:45:15;;;;;;;;;16.25;14.25;;;;;9.67;84.17;101080.91;5031882;28;45504;-71
2022/04/05 05:47:40;;;;;;;;;19.50;17.25;;;;;9.67;85.13;101095.81;5034351;28;45383;-71
2022/04/05 05:50:06;;;;;;;;;21.50;16.50;;;;;9.70;84.29;101085.19;5030283;28;45863;-71
2022/04/05 05:52:32;;;;;;;;;16.75;12.25;;;;;9.73;84.33;101085.09;5031304;28;45392;-71
2022/04/05 05:54:57;;;;;;;;;16.50;14.50;;;;;9.73;84.53;101079.00;5034223;28;45390;-71
2022/04/05 05:57:22;;;;;;;;;17.00;16.50;;;;;9.76;83.85;101081.50;5012914;28;45330;-71
2022/04/05 05:59:48;;;;;;;;;15.25;15.25;;;;;9.75;87.14;101074.53;5033395;28;45700;-71
2022/04/05 06:02:13;;;;;;;;;17.00;12.67;;;;;9.75;84.74;101077.16;5024457;28;62818;-71
2022/04/05 06:04:38;;;;;;;;;19.75;13.75;;;;;9.79;84.35;101084.03;5033488;28;45526;-71
2022/04/05 06:07:03;;;;;;;;;15.00;12.67;;;;;9.81;83.27;101082.19;5032290;28;47045;-71
2022/04/05 06:09:29;;;;;;;;;16.75;12.00;;;;;9.83;83.61;101089.13;5031257;28;45372;-71
2022/04/05 06:11:54;;;;;;;;;15.67;14.00;;;;;9.86;83.22;101094.25;5031507;28;45460;-72
2022/04/05 06:14:19;;;;;;;;;12.00;11.67;;;;;9.88;83.18;101087.19;5029820;28;51429;-71
2022/04/05 06:16:45;;;;;;;;;17.33;14.00;;;;;9.95;83.07;101093.09;5029486;28;45497;-71
2022/04/05 06:19:10;;;;;;;;;17.00;14.00;;;;;9.99;82.70;101099.97;5029974;28;47243;-71
2022/04/05 06:21:35;;;;;;;;;16.50;14.75;;;;;9.99;82.81;101097.34;5033733;28;45504;-71
2022/04/05 06:24:00;;;;;;;;;18.33;13.00;;;;;9.97;83.27;101093.91;5030420;28;45337;-71
2022/04/05 06:26:26;;;;;;;;;12.50;11.75;;;;;10.05;82.93;101110.25;5028934;28;45559;-71
2022/04/05 06:28:54;;;;;;;;;18.75;15.00;;;;;10.06;82.81;101114.56;5030060;28;46084;-71
2022/04/05 06:31:19;;;;;;;;;14.75;13.50;;;;;10.10;82.50;101118.81;5032213;28;45819;-71
2022/04/05 06:33:44;;;;;;;;;14.00;14.00;;;;;10.13;82.89;101121.34;5027182;28;45398;-71
2022/04/05 06:36:09;;;;;;;;;16.75;15.50;;;;;10.18;82.25;101123.81;5027067;28;45656;-71
2022/04/05 06:38:35;;;;;;;;;23.50;16.75;;;;;10.18;83.82;101119.41;5028406;28;45624;-70
2022/04/05 06:41:00;;;;;;;;;13.33;13.00;;;;;10.17;84.76;101125.56;5029161;28;46664;-71
2022/04/05 06:43:26;;;;;;;;;17.00;13.00;;;;;10.13;84.35;101116.09;5029663;28;45412;-70
2022/04/05 06:45:52;;;;;;;;;17.50;13.50;;;;;10.13;84.51;101128.38;5027833;28;45339;-70
2022/04/05 06:48:18;;;;;;;;;19.50;17.00;;;;;10.12;84.27;101118.75;5026450;28;46101;-71
2022/04/05 06:50:44;;;;;;;;;14.25;12.50;;;;;10.12;84.12;101127.50;5029933;28;45902;-70
2022/04/05 06:53:10;;;;;;;;;19.00;16.00;;;;;10.14;85.77;101123.06;5033214;28;45557;-70
2022/04/05 06:55:35;;;;;;;;;18.25;14.50;;;;;10.13;86.48;101129.22;5031843;28;45497;-70
2022/04/05 06:58:01;;;;;;;;;19.50;14.75;;;;;10.18;85.06;101121.19;5020886;28;45389;-70
2022/04/05 07:00:27;;;;;;;;;20.75;13.50;;;;;10.22;84.70;101122.78;5026654;28;45371;-70
2022/04/05 07:02:54;;;;;;;;;17.00;16.00;;;;;10.29;84.13;101124.34;5023770;28;45477;-71
2022/04/05 07:05:20;;;;;;;;;19.50;17.25;;;;;10.33;84.17;101125.91;5030918;28;45651;-71
2022/04/05 07:07:46;;;;;;;;;18.25;16.00;;;;;10.36;84.00;101117.06;5027789;28;46253;-71
2022/04/05 07:10:17;;;;;;;;;14.75;13.25;;;;;10.40;84.23;101119.53;5031661;28;45430;-70
2022/04/05 07:12:45;;;;;;;;;14.25;11.25;;;;;10.42;83.81;101117.72;5021421;28;45533;-71
2022/04/05 07:15:11;;;;;;;;;22.75;17.00;;;;;10.45;84.00;101117.59;5022004;28;45419;-71
2022/04/05 07:17:40;;;;;;;;;19.00;14.75;;;;;10.45;83.77;101117.59;5025156;28;46592;-71
2022/04/05 07:20:08;;;;;;;;;19.50;16.50;;;;;10.50;83.60;101114.81;5032073;28;45886;-72
2022/04/05 07:22:34;;;;;;;;;20.00;14.00;;;;;10.56;83.49;101111.97;5030209;28;45473;-72
2022/04/05 07:24:59;;;;;;;;;24.50;18.25;;;;;10.58;83.25;101104.00;5030818;28;45595;-71
2022/04/05 07:27:25;;;;;;;;;15.25;12.75;;;;;10.63;83.01;101105.56;5027440;28;46515;-71
2022/04/05 07:29:50;;;;;;;;;20.50;19.25;;;;;10.65;83.29;101106.38;5023631;28;45566;-71
2022/04/05 07:32:16;;;;;;;;;19.50;16.25;;;;;10.68;83.12;101103.59;5029600;28;45571;-71
2022/04/05 07:34:41;;;;;;;;;23.00;17.75;;;;;10.72;82.94;101107.00;5028600;28;45528;-72
2022/04/05 07:37:09;;;;;;;;;22.00;19.75;;;;;10.75;83.30;101106.00;5025336;28;45364;-71
2022/04/05 07:39:36;;;;;;;;;21.75;18.25;;;;;10.80;83.33;101109.31;5032542;28;45527;-72
2022/04/05 07:42:01;;;;;;;;;19.75;15.00;;;;;10.85;82.95;101110.84;5031115;28;45424;-72
2022/04/05 07:44:27;;;;;;;;;19.50;15.00;;;;;10.86;82.87;101112.59;5028523;28;45521;-71
2022/04/05 07:46:52;;;;;;;;;26.33;20.00;;;;;10.89;82.92;101111.59;5021456;28;53334;-71
2022/04/05 07:49:17;;;;;;;;;18.00;18.00;;;;;10.94;83.04;101115.75;5026824;28;45529;-72
2022/04/05 07:51:43;;;;;;;;;23.25;17.50;;;;;10.99;83.02;101115.59;5030511;28;45514;-72
2022/04/05 07:54:08;;;;;;;;;19.25;15.50;;;;;11.12;82.77;101118.59;5032712;28;45564;-71
2022/04/05 07:56:34;;;;;;;;;21.00;16.00;;;;;11.13;85.84;101113.28;5024674;28;47677;-71
2022/04/05 07:59:01;;;;;;;;;19.25;15.25;;;;;11.13;84.99;101120.34;5028329;28;45808;-71
2022/04/05 08:01:29;;;;;;;;;13.00;11.00;;;;;11.10;83.15;101121.28;5031996;28;45429;-71
2022/04/05 08:03:55;;;;;;;;;24.50;19.25;;;;;11.09;82.93;101121.34;5028060;28;45473;-72
2022/04/05 08:06:20;;;;;;;;;16.25;14.25;;;;;11.07;83.12;101120.56;5031400;28;46040;-71
2022/04/05 08:08:45;;;;;;;;;14.00;14.00;;;;;11.12;82.96;101114.22;5028351;28;45355;-71
2022/04/05 08:11:11;;;;;;;;;16.50;15.00;;;;;11.16;82.93;101123.66;5031581;28;45348;-71
2022/04/05 08:13:36;;;;;;;;;18.75;15.25;;;;;11.22;83.13;101118.19;5030727;28;45429;-71
2022/04/05 08:16:02;;;;;;;;;15.75;14.25;;;;;11.28;82.93;101117.09;5031908;28;45449;-71
2022/04/05 08:18:27;;;;;;;;;21.00;17.25;;;;;11.35;82.89;101113.28;5029087;28;45480;-71
2022/04/05 08:20:53;;;;;;;;;20.75;17.75;;;;;11.46;82.40;101111.06;5029453;28;45685;-71
2022/04/05 08:23:19;;;;;;;;;20.50;17.00;;;;;11.57;82.39;101117.69;5032303;28;45587;-71
2022/04/05 08:25:44;;;;;;;;;19.50;14.75;;;;;11.65;82.01;101120.88;5034409;28;46300;-71
2022/04/05 08:28:09;;;;;;;;;20.25;16.50;;;;;11.68;81.93;101123.34;5032746;28;45547;-71
2022/04/05 08:30:35;;;;;;;;;18.50;15.00;;;;;11.70;82.05;101119.75;5012383;28;45418;-71
2022/04/05 08:33:00;;;;;;;;;25.25;17.25;;;;;11.67;81.93;101122.50;5028747;28;45618;-68
2022/04/05 08:35:26;;;;;;;;;22.25;19.25;;;;;11.64;82.57;101125.28;5026893;28;45567;-69
2022/04/05 08:37:54;;;;;;;;;42.00;32.25;;;;;11.71;82.44;101124.09;5030168;28;45482;-68
2022/04/05 08:40:21;;;;;;;;;18.00;13.50;;;;;11.79;83.11;101122.91;5034861;28;45391;-69
2022/04/05 08:42:49;;;;;;;;;18.25;16.50;;;;;11.88;82.87;101110.25;5035049;28;45366;-68
2022/04/05 08:45:16;;;;;;;;;18.00;14.00;;;;;11.97;82.15;101114.28;5035812;28;46400;-69
2022/04/05 08:48:12;;;;;;;;;14.75;13.75;;;;;11.90;82.88;101118.97;5035340;28;47048;-68
2022/04/05 08:50:38;;;;;;;;;19.75;16.75;;;;;11.85;83.87;101114.78;5015161;28;45727;-69
2022/04/05 08:53:04;;;;;;;;;18.50;14.75;;;;;11.86;83.88;101119.16;5021361;28;45519;-67
2022/04/05 08:55:30;;;;;;;;;16.50;16.25;;;;;11.89;84.70;101121.63;5034140;28;47372;-67
2022/04/05 08:57:56;;;;;;;;;20.50;15.00;;;;;11.87;84.07;101116.44;5030109;28;45395;-68
2022/04/05 09:00:23;;;;;;;;;17.25;15.50;;;;;11.93;84.34;101120.59;5028114;28;45381;-69
2022/04/05 09:03:00;;;;;;;;;14.50;12.50;;;;;11.91;87.59;101120.66;5016814;28;45524;-71
2022/04/05 09:05:38;;;;;;;;;19.75;15.75;;;;;11.90;85.22;101121.59;5031933;28;46225;-68
2022/04/05 09:08:21;;;;;;;;;23.50;15.00;;;;;11.95;84.52;101111.72;5035604;28;45911;-68
2022/04/05 09:10:53;;;;;;;;;22.00;18.75;;;;;11.98;85.37;101116.84;5034997;28;48455;-70
2022/04/05 09:13:27;;;;;;;;;21.25;17.75;;;;;11.98;86.39;101103.66;5033308;28;45544;-69
2022/04/05 09:16:24;;;;;;;;;17.50;15.50;;;;;11.93;85.66;101105.66;5033575;28;45511;-70
2022/04/05 09:18:50;;;;;;;;;20.00;15.25;;;;;12.02;85.54;101117.56;5038497;28;45478;-69
2022/04/05 09:21:15;;;;;;;;;17.75;16.50;;;;;12.05;85.02;101116.56;5039023;28;45454;-69
2022/04/05 09:23:43;;;;;;;;;23.50;18.25;;;;;12.06;85.66;101115.66;5033257;28;45793;-69
2022/04/05 09:26:11;;;;;;;;;19.50;17.25;;;;;12.10;84.90;101110.19;5037349;28;45481;-70
2022/04/05 09:28:41;;;;;;;;;19.75;14.00;;;;;12.15;85.33;101113.47;5031120;28;45479;-69
2022/04/05 09:31:11;;;;;;;;;17.75;15.25;;;;;12.20;87.58;101114.13;5015859;28;45602;-70
2022/04/05 09:33:41;;;;;;;;;19.25;14.50;;;;;12.23;87.74;101108.75;5038979;28;45589;-70
2022/04/05 09:36:14;;;;;;;;;18.25;14.50;;;;;12.21;84.75;101114.97;5033718;28;45462;-70
2022/04/05 09:38:43;;;;;;;;;16.00;15.00;;;;;12.19;86.39;101117.69;5036413;28;45858;-69
2022/04/05 09:41:14;;;;;;;;;19.25;15.25;;;;;12.25;84.97;101119.22;5036083;28;45441;-69
2022/04/05 09:43:58;;;;;;;;;21.25;17.75;;;;;12.31;86.70;101128.63;5029119;28;45595;-70
2022/04/05 09:46:25;;;;;;;;;16.75;16.50;;;;;12.31;85.43;101128.63;5045232;28;46621;-70
2022/04/05 09:49:08;;;;;;;;;21.50;14.50;;;;;12.30;84.36;101132.19;5033556;28;45910;-70
2022/04/05 09:51:40;;;;;;;;;18.50;15.75;;;;;12.35;84.52;101125.78;5039083;28;45393;-70
2022/04/05 09:54:06;;;;;;;;;14.75;12.25;;;;;12.43;85.02;101133.38;5036651;28;45471;-69
2022/04/05 09:56:33;;;;;;;;;18.75;16.50;;;;;12.45;84.32;101131.50;5043534;28;46033;-70
2022/04/05 09:59:04;;;;;;;;;18.75;15.50;;;;;12.52;85.05;101133.78;5038463;28;45464;-70
2022/04/05 10:01:32;;;;;;;;;18.50;15.00;;;;;12.60;84.27;101137.88;5037504;28;45469;-70
2022/04/05 10:04:09;;;;;;;;;20.25;15.50;;;;;12.69;84.79;101122.50;5035307;28;45266;-70
2022/04/05 10:06:43;;;;;;;;;15.25;14.00;;;;;12.87;84.22;101114.66;5047848;28;45432;-70
2022/04/05 10:09:09;;;;;;;;;21.75;18.25;;;;;12.98;83.07;101118.50;5038589;28;45326;-69
2022/04/05 10:11:37;;;;;;;;;18.75;14.75;;;;;13.04;82.94;101122.63;5038882;28;45575;-69
2022/04/05 10:14:03;;;;;;;;;17.75;16.00;;;;;13.07;82.42;101125.16;5038839;28;45448;-70
2022/04/05 10:16:31;;;;;;;;;16.50;15.50;;;;;13.06;81.98;101118.16;5036670;28;45354;-70
2022/04/05 10:18:59;;;;;;;;;18.25;16.00;;;;;13.02;81.89;101116.59;5035811;28;46157;-70
2022/04/05 10:21:28;;;;;;;;;22.50;18.00;;;;;13.01;82.64;101120.16;5036513;28;45539;-70
2022/04/05 10:23:55;;;;;;;;;23.00;15.25;;;;;12.96;83.20;101106.34;5032478;28;45512;-69
2022/04/05 10:26:27;;;;;;;;;19.50;18.00;;;;;13.11;82.25;101110.88;5038921;28;46320;-70
2022/04/05 10:28:56;;;;;;;;;22.75;18.25;;;;;13.14;81.77;101118.63;5040575;28;45349;-68
2022/04/05 10:31:43;;;;;;;;;22.00;15.50;;;;;13.15;82.43;101122.97;5036976;28;45505;-70
2022/04/05 10:34:22;;;;;;;;;17.50;16.00;;;;;13.14;81.49;101117.78;5029003;28;45770;-70
2022/04/05 10:37:06;;;;;;;;;15.50;15.50;;;;;13.08;81.75;101111.03;5033798;28;45576;-70
2022/04/05 10:39:32;;;;;;;;;22.75;17.75;;;;;13.09;81.91;101117.16;5034641;28;45885;-70
2022/04/05 10:42:12;;;;;;;;;17.00;17.00;;;;;13.09;81.45;101115.38;5032446;28;45424;-69
2022/04/05 10:44:40;;;;;;;;;18.75;17.00;;;;;12.95;82.25;101113.41;5030908;28;45505;-69
2022/04/05 10:47:07;;;;;;;;;22.00;14.75;;;;;12.97;82.52;101124.72;5030681;28;45567;-70
2022/04/05 10:49:39;;;;;;;;;20.25;15.75;;;;;12.91;82.22;101117.09;5033231;28;45987;-71
2022/04/05 10:52:17;;;;;;;;;16.25;16.00;;;;;12.87;82.04;101112.88;5033841;28;45484;-71
2022/04/05 10:55:02;;;;;;;;;12.50;10.00;;;;;12.91;81.98;101113.59;5039181;28;45424;-72
2022/04/05 10:57:34;;;;;;;;;15.50;13.00;;;;;12.94;82.23;101100.25;5033644;28;46219;-71
2022/04/05 11:00:10;;;;;;;;;19.75;15.50;;;;;13.02;82.25;101113.94;5037156;28;45595;-70
2022/04/05 11:02:35;;;;;;;;;20.25;17.25;;;;;13.09;82.48;101101.31;5034577;28;45725;-70
2022/04/05 11:05:15;;;;;;;;;18.50;13.00;;;;;13.15;81.75;101098.38;5036049;28;45660;-71
2022/04/05 11:07:52;;;;;;;;;20.00;13.25;;;;;13.12;81.43;101090.63;5033316;28;45591;-68
2022/04/05 11:10:41;;;;;;;;;16.00;11.75;;;;;13.02;81.08;101087.56;5025687;28;45465;-68
2022/04/05 11:13:19;;;;;;;;;11.00;10.50;;;;;12.95;81.47;101087.00;5017789;28;45381;-68